Plymouth, MI (48170)

4:52 PM EDT on May 05, 2015 (GMT -0400)
Napier Observatory | | Change Station
CLOSE
Current Station
Personal Weather Station
Location: Canton, MI
Elevation: 798 ft
Nearby Weather Stations

Elev 798 ft 42.34 °N, 83.55 °W | Updated 3 seconds ago

Rain
Rain
48.7 °F
Feels Like 49 °F
N
0.0
Wind Variable Wind from ENE
Gusts 5.0 mph

Today
High -- | Low -- °F
--% Chance of Precip.
Yesterday
High -- | Low -- °F
Precip. -- in
6:24 AM 8:37 PM
Full, 97% visible
Pressure 30.29 in
Visibility 5.0 miles
Clouds Overcast 1700 ft
Windchill 49 °F
Dew Point 43 °F
Humidity 82%
Rainfall 0.25 in
Snow Depth Not available.
UV 2 out of 12
Pollen 8.50 out of 12
Air Quality Not available.
Flu Activity Regional
METAR KYIP 051953Z 04007KT 5SM -RA OVC017 12/08 A3029 RMK AO2 SLP256 P0003 T01220083

More Conditions Fewer Conditions

Pressure 30.29 in
Visibility 5.0 miles
Clouds Overcast 1700 ft
Windchill 49 °F
Dew Point 43 °F
Humidity 82%
Rainfall 0.25 in
Snow Depth Not available.
UV 2 out of 12
Pollen 8.50 out of 12
Air Quality Not available.
Flu Activity Regional
METAR KYIP 051953Z 04007KT 5SM -RA OVC017 12/08 A3029 RMK AO2 SLP256 P0003 T01220083

More Conditions Fewer Conditions

10-Day Weather Forecast

Almanac

Astronomy

May. 05, 2015 Rise Set
Actual Time
Civil Twilight
Nautical Twilight
Astronomical Twilight
Moon
Length of Visible Light
Length of Day
Tomorrow will be .
, % of the Moon is Illuminated

Today's Extremes

State Highs State Lows

Community

WunderPhotos

Upload Photos

1,818,975 photos uploaded!

WunderBlogs® & News

Nearby

Air Quality

  Air Quality AQ Index Pollutant
Not available.

Snow Depth

Station Depth Elevation

Earthquake Activity

City Distance Mag. Time & Date
Minimum magnitude displayed is 2.5.

Coastal Water Temperatures

Place Temperature

Stations

Nearby Weather Stations

Station Location Temp. Windchill Dew Point Humidity Wind Precip. Elev Updated Type